createdAt,value
2022-12-11T00:00:28.831Z,100999.59
2022-12-11T00:01:50.393Z,101001.02
2022-12-11T00:02:52.455Z,101001.63
2022-12-11T00:03:54.216Z,101002.02
2022-12-11T00:04:55.770Z,101002.91
2022-12-11T00:05:57.617Z,101004.41
2022-12-11T00:06:59.152Z,100999.60
2022-12-11T00:08:00.908Z,100997.27
2022-12-11T00:09:02.626Z,101001.00
2022-12-11T00:10:04.687Z,100999.74
2022-12-11T00:11:11.098Z,100998.22
2022-12-11T00:12:12.631Z,100996.21
2022-12-11T00:13:14.260Z,100989.70
2022-12-11T00:14:15.844Z,100989.85
2022-12-11T00:15:17.812Z,100994.16
2022-12-11T00:16:23.815Z,100993.05
2022-12-11T00:17:28.145Z,100989.44
2022-12-11T00:18:29.801Z,100993.48
2022-12-11T00:19:31.396Z,100992.79
2022-12-11T00:20:34.431Z,100991.71
2022-12-11T00:21:36.271Z,100993.74
2022-12-11T00:22:38.195Z,100989.48
2022-12-11T00:23:43.302Z,100990.15
2022-12-11T00:24:47.020Z,100991.46
2022-12-11T00:25:49.199Z,100993.92
2022-12-11T00:26:50.747Z,100993.71
2022-12-11T00:27:52.183Z,100996.02
2022-12-11T00:28:54.998Z,100994.97
2022-12-11T00:29:56.566Z,100992.54
2022-12-11T00:30:58.104Z,100991.81
2022-12-11T00:31:59.698Z,100993.77
2022-12-11T00:33:01.213Z,100994.49
2022-12-11T00:34:02.801Z,100994.11
2022-12-11T00:35:04.577Z,100992.96
2022-12-11T00:36:10.562Z,100992.82
2022-12-11T00:37:12.289Z,100995.66
2022-12-11T00:38:18.302Z,100996.18
2022-12-11T00:39:20.090Z,100998.99
2022-12-11T00:40:21.731Z,100996.96
2022-12-11T00:41:23.769Z,101001.02
2022-12-11T00:42:25.325Z,101001.07
2022-12-11T00:43:26.829Z,101001.17
2022-12-11T00:44:28.410Z,101000.05
2022-12-11T00:45:30.093Z,101000.41
2022-12-11T00:46:31.847Z,101000.77
2022-12-11T00:47:33.617Z,101001.38
2022-12-11T00:48:35.275Z,101005.40
2022-12-11T00:49:37.132Z,101002.66
2022-12-11T00:50:39.586Z,101005.02
2022-12-11T00:51:41.076Z,101004.85
2022-12-11T00:52:42.639Z,101001.86
2022-12-11T00:53:44.195Z,100997.41
2022-12-11T00:54:46.118Z,100999.58
2022-12-11T00:55:47.713Z,100994.02
2022-12-11T00:56:50.123Z,100992.63
2022-12-11T00:57:51.843Z,100992.64
2022-12-11T00:58:53.345Z,100993.43
2022-12-11T00:59:55.118Z,100990.64
2022-12-11T01:01:04.440Z,100991.36
2022-12-11T01:02:05.972Z,100995.39
2022-12-11T01:03:08.756Z,100988.58
2022-12-11T01:04:10.338Z,100990.43
2022-12-11T01:05:12.160Z,100989.36
2022-12-11T01:06:15.441Z,100995.11
2022-12-11T01:07:16.930Z,100995.38
2022-12-11T01:08:18.595Z,100993.25
2022-12-11T01:09:38.944Z,100991.72
2022-12-11T01:10:40.562Z,100989.05
2022-12-11T01:11:42.608Z,100988.52
2022-12-11T01:12:44.132Z,100983.58
2022-12-11T01:13:46.374Z,100989.39
2022-12-11T01:14:47.911Z,100988.24
2022-12-11T01:15:49.492Z,100984.89
2022-12-11T01:16:50.951Z,100986.30
2022-12-11T01:17:52.679Z,100987.15
2022-12-11T01:18:54.242Z,100987.27
2022-12-11T01:19:55.927Z,100984.19
2022-12-11T01:20:57.582Z,100984.40
2022-12-11T01:21:59.875Z,100982.88
2022-12-11T01:23:01.318Z,100983.96
2022-12-11T01:24:02.964Z,100984.97
2022-12-11T01:25:04.710Z,100984.16
2022-12-11T01:26:13.429Z,100980.08
2022-12-11T01:27:15.332Z,100982.80
2022-12-11T01:28:16.859Z,100979.86
2022-12-11T01:29:18.460Z,100977.99
2022-12-11T01:30:21.748Z,100977.83
2022-12-11T01:31:23.343Z,100980.67
2022-12-11T01:32:24.790Z,100978.34
2022-12-11T01:33:26.599Z,100975.65
2022-12-11T01:34:28.774Z,100975.27
2022-12-11T01:35:30.392Z,100975.52
2022-12-11T01:36:32.119Z,100977.49
2022-12-11T01:37:33.911Z,100978.95
2022-12-11T01:38:35.372Z,100978.04
2022-12-11T01:39:38.222Z,100973.34
2022-12-11T01:40:50.517Z,100973.81
2022-12-11T01:41:56.402Z,100973.81
2022-12-11T01:42:57.935Z,100970.52
2022-12-11T01:44:07.757Z,100971.27
2022-12-11T01:45:12.581Z,100968.35
2022-12-11T01:46:14.399Z,100970.31
2022-12-11T01:47:16.617Z,100967.42
2022-12-11T01:48:23.119Z,100968.16
2022-12-11T01:49:25.659Z,100966.94
2022-12-11T01:50:28.255Z,100960.74
2022-12-11T01:51:31.294Z,100960.26
2022-12-11T01:52:33.013Z,100954.70
2022-12-11T01:53:36.542Z,100955.89
2022-12-11T01:54:38.292Z,100957.16
2022-12-11T01:55:40.496Z,100955.23
2022-12-11T01:56:43.001Z,100956.66
2022-12-11T01:57:46.499Z,100955.08
2022-12-11T01:58:55.036Z,100957.95
2022-12-11T01:59:56.671Z,100951.64
2022-12-11T02:00:58.871Z,100955.97
2022-12-11T02:02:03.491Z,100954.76
2022-12-11T02:03:05.170Z,100952.54
2022-12-11T02:04:07.024Z,100950.85
2022-12-11T02:05:09.436Z,100952.36
2022-12-11T02:06:32.045Z,100950.08
2022-12-11T02:07:41.743Z,100951.38
2022-12-11T02:08:43.297Z,100949.35
2022-12-11T02:09:45.825Z,100948.13
2022-12-11T02:10:50.583Z,100953.02
2022-12-11T02:12:21.468Z,100952.99
2022-12-11T02:13:27.992Z,100954.72
2022-12-11T02:14:38.397Z,100952.12
2022-12-11T02:15:49.901Z,100952.16
2022-12-11T02:17:01.443Z,100952.34
2022-12-11T02:18:38.674Z,100948.17
2022-12-11T02:20:03.209Z,100952.46
2022-12-11T02:21:18.591Z,100946.11
2022-12-11T02:22:40.410Z,100945.02
2022-12-11T02:23:50.920Z,100944.85
2022-12-11T02:25:01.739Z,100940.74
2022-12-11T02:26:03.483Z,100939.01
2022-12-11T02:27:13.497Z,100937.97
2022-12-11T02:28:29.480Z,100938.70
2022-12-11T02:29:38.868Z,100940.70
2022-12-11T02:32:16.724Z,100937.95
2022-12-11T02:33:21.471Z,100936.50
2022-12-11T02:34:28.291Z,100932.02
2022-12-11T02:35:32.681Z,100933.21
2022-12-11T02:36:36.861Z,100930.08
2022-12-11T02:37:40.660Z,100933.56
2022-12-11T02:38:46.298Z,100930.52
2022-12-11T02:39:49.186Z,100930.01
2022-12-11T02:40:53.050Z,100933.02
2022-12-11T02:41:55.777Z,100933.69
2022-12-11T02:42:59.042Z,100936.10
2022-12-11T02:44:02.156Z,100938.56
2022-12-11T02:45:04.226Z,100945.37
2022-12-11T02:46:07.142Z,100950.05
2022-12-11T02:47:11.929Z,100951.34
2022-12-11T02:48:14.337Z,100952.06
2022-12-11T02:49:17.168Z,100952.44
2022-12-11T02:50:20.798Z,100951.42
2022-12-11T02:51:25.192Z,100949.10
2022-12-11T02:52:28.498Z,100949.48
2022-12-11T02:53:31.736Z,100947.81
2022-12-11T02:54:35.317Z,100949.39
2022-12-11T02:55:37.738Z,100947.70
2022-12-11T02:56:52.121Z,100942.85
2022-12-11T02:58:29.433Z,100942.23
2022-12-11T02:59:35.911Z,100946.17
2022-12-11T03:00:37.552Z,100944.23
2022-12-11T03:01:39.224Z,100944.23
2022-12-11T03:02:41.636Z,100947.77
2022-12-11T03:03:43.364Z,100946.92
2022-12-11T03:04:45.360Z,100945.86
2022-12-11T03:05:47.463Z,100948.66
2022-12-11T03:06:51.201Z,100944.73
2022-12-11T03:07:52.791Z,100950.60
2022-12-11T03:08:54.293Z,100948.70
2022-12-11T03:09:56.027Z,100944.14
2022-12-11T03:10:57.679Z,100943.68
2022-12-11T03:11:59.165Z,100936.70
2022-12-11T03:13:02.049Z,100938.90
2022-12-11T03:14:03.954Z,100937.20
2022-12-11T03:15:07.675Z,100937.95
2022-12-11T03:16:28.304Z,100936.33
2022-12-11T03:17:34.847Z,100936.09
2022-12-11T03:18:36.357Z,100935.39
2022-12-11T03:19:45.384Z,100937.62
2022-12-11T03:20:57.562Z,100939.27
2022-12-11T03:22:02.083Z,100938.23
2022-12-11T03:23:08.915Z,100939.99
2022-12-11T03:24:16.694Z,100935.82
2022-12-11T03:25:18.155Z,100932.73
2022-12-11T03:26:20.400Z,100929.17
2022-12-11T03:27:26.065Z,100929.07
2022-12-11T03:28:41.058Z,100929.95
2022-12-11T03:29:48.604Z,100926.88
2022-12-11T03:30:52.262Z,100932.35
2022-12-11T03:31:58.744Z,100929.69
2022-12-11T03:33:23.177Z,100929.72
2022-12-11T03:34:35.029Z,100932.12
2022-12-11T03:35:39.677Z,100930.36
2022-12-11T03:36:41.950Z,100933.34
2022-12-11T03:37:44.364Z,100935.02
2022-12-11T03:38:49.769Z,100931.05
2022-12-11T03:39:53.360Z,100928.88
2022-12-11T03:40:57.585Z,100931.40
2022-12-11T03:42:01.110Z,100927.44
2022-12-11T03:43:04.222Z,100926.98
2022-12-11T03:44:06.574Z,100924.48
2022-12-11T03:45:08.625Z,100921.52
2022-12-11T03:46:12.326Z,100921.13
2022-12-11T03:47:17.073Z,100923.68
2022-12-11T03:48:20.354Z,100920.91
2022-12-11T03:49:27.298Z,100916.67
2022-12-11T03:50:30.895Z,100918.22
2022-12-11T03:51:33.755Z,100917.55
2022-12-11T03:52:40.976Z,100918.80
2022-12-11T03:53:47.195Z,100917.65
2022-12-11T03:54:50.175Z,100919.03
2022-12-11T03:55:52.720Z,100918.76
2022-12-11T03:56:56.945Z,100918.27
2022-12-11T03:57:58.521Z,100917.88
2022-12-11T03:58:59.927Z,100913.52
2022-12-11T04:00:04.247Z,100909.98
2022-12-11T04:01:13.576Z,100906.94
2022-12-11T04:02:15.043Z,100907.41
2022-12-11T04:03:17.345Z,100909.24
2022-12-11T04:04:18.993Z,100908.23
2022-12-11T04:05:20.671Z,100908.73
2022-12-11T04:06:22.170Z,100914.42
2022-12-11T04:07:23.959Z,100911.93
2022-12-11T04:08:25.584Z,100912.45
2022-12-11T04:09:27.124Z,100912.32
2022-12-11T04:10:28.871Z,100914.64
2022-12-11T04:11:36.148Z,100916.27
2022-12-11T04:12:37.888Z,100914.08
2022-12-11T04:13:40.299Z,100911.12
2022-12-11T04:15:00.617Z,100910.17
2022-12-11T04:16:02.438Z,100908.70
2022-12-11T04:17:03.934Z,100912.69
2022-12-11T04:18:25.003Z,100913.48
2022-12-11T04:19:45.418Z,100915.62
2022-12-11T04:21:06.009Z,100914.73
2022-12-11T04:22:27.986Z,100914.50
2022-12-11T04:23:48.538Z,100913.84
2022-12-11T04:24:50.081Z,100911.21
2022-12-11T04:25:51.540Z,100911.02
2022-12-11T04:26:53.098Z,100912.02
2022-12-11T04:27:54.741Z,100913.58
2022-12-11T04:28:56.278Z,100911.64
2022-12-11T04:29:57.778Z,100908.06
2022-12-11T04:30:59.354Z,100908.43
2022-12-11T04:32:00.965Z,100903.05
2022-12-11T04:33:02.733Z,100906.89
2022-12-11T04:34:04.366Z,100907.44
2022-12-11T04:35:07.533Z,100910.14
2022-12-11T04:36:09.794Z,100908.98
2022-12-11T04:37:11.321Z,100911.80
2022-12-11T04:38:13.093Z,100912.40
2022-12-11T04:39:14.657Z,100911.80
2022-12-11T04:40:17.530Z,100911.27
2022-12-11T04:41:19.299Z,100911.84
2022-12-11T04:42:21.057Z,100909.52
2022-12-11T04:43:22.571Z,100910.05
2022-12-11T04:44:24.066Z,100909.78
2022-12-11T04:45:25.537Z,100909.78
2022-12-11T04:46:27.149Z,100912.58
2022-12-11T04:47:28.707Z,100915.64
2022-12-11T04:48:30.280Z,100913.71
2022-12-11T04:49:31.823Z,100918.95
2022-12-11T04:50:33.292Z,100918.44
2022-12-11T04:51:34.802Z,100913.79
2022-12-11T04:52:36.309Z,100912.75
2022-12-11T04:53:38.630Z,100914.83
2022-12-11T04:54:40.555Z,100909.63
2022-12-11T04:55:42.051Z,100914.54
2022-12-11T04:56:43.465Z,100909.65
2022-12-11T04:57:44.981Z,100914.20
2022-12-11T04:58:51.022Z,100915.58
2022-12-11T04:59:52.460Z,100914.67
2022-12-11T05:00:53.927Z,100911.00
2022-12-11T05:01:55.538Z,100908.71
2022-12-11T05:02:57.171Z,100909.96
2022-12-11T05:03:59.465Z,100907.71
2022-12-11T05:05:02.547Z,100906.00
2022-12-11T05:06:04.204Z,100905.11
2022-12-11T05:07:05.653Z,100908.40
2022-12-11T05:08:07.669Z,100907.13
2022-12-11T05:09:12.699Z,100906.63
2022-12-11T05:10:14.179Z,100907.91
2022-12-11T05:11:16.789Z,100906.96
2022-12-11T05:12:18.251Z,100905.67
2022-12-11T05:13:19.708Z,100902.75
2022-12-11T05:14:21.573Z,100907.41
2022-12-11T05:15:23.261Z,100903.92
2022-12-11T05:16:24.813Z,100904.32
2022-12-11T05:17:26.315Z,100901.05
2022-12-11T05:18:27.858Z,100902.79
2022-12-11T05:19:29.473Z,100904.17
2022-12-11T05:20:30.945Z,100899.97
2022-12-11T05:21:35.173Z,100900.55
2022-12-11T05:22:37.421Z,100902.53
2022-12-11T05:23:39.002Z,100897.77
2022-12-11T05:24:40.774Z,100897.19
2022-12-11T05:25:42.311Z,100902.92
2022-12-11T05:26:43.840Z,100902.11
2022-12-11T05:27:45.317Z,100906.30
2022-12-11T05:28:50.057Z,100905.17
2022-12-11T05:29:54.864Z,100906.33
2022-12-11T05:31:02.841Z,100901.89
2022-12-11T05:32:04.457Z,100903.40
2022-12-11T05:33:06.036Z,100903.93
2022-12-11T05:34:07.551Z,100897.67
2022-12-11T05:35:09.777Z,100902.23
2022-12-11T05:36:16.170Z,100897.69
2022-12-11T05:37:17.659Z,100897.08
2022-12-11T05:38:19.782Z,100897.38
2022-12-11T05:39:21.411Z,100895.71
2022-12-11T05:40:22.989Z,100894.02
2022-12-11T05:41:25.777Z,100890.33
2022-12-11T05:42:29.124Z,100888.52
2022-12-11T05:43:31.877Z,100886.55
2022-12-11T05:44:33.354Z,100883.36
2022-12-11T05:45:34.940Z,100881.04
2022-12-11T05:46:36.462Z,100880.95
2022-12-11T05:47:37.953Z,100875.94
2022-12-11T05:48:39.926Z,100877.33
2022-12-11T05:49:41.409Z,100874.61
2022-12-11T05:50:42.965Z,100876.41
2022-12-11T05:51:44.419Z,100873.48
2022-12-11T05:52:45.857Z,100874.45
2022-12-11T05:53:49.039Z,100871.67
2022-12-11T05:54:50.484Z,100872.75
2022-12-11T05:55:52.253Z,100872.42
2022-12-11T05:56:53.784Z,100873.61
2022-12-11T05:57:55.248Z,100872.94
2022-12-11T05:58:57.177Z,100871.99
2022-12-11T05:59:58.726Z,100871.16
2022-12-11T06:01:00.742Z,100866.52
2022-12-11T06:02:02.418Z,100867.92
2022-12-11T06:03:04.021Z,100868.31
2022-12-11T06:04:06.864Z,100859.80
2022-12-11T06:05:08.569Z,100857.83
2022-12-11T06:06:10.497Z,100859.11
2022-12-11T06:07:12.563Z,100857.19
2022-12-11T06:08:14.297Z,100860.32
2022-12-11T06:09:16.556Z,100854.27
2022-12-11T06:10:18.366Z,100853.52
2022-12-11T06:11:23.979Z,100853.02
2022-12-11T06:12:26.662Z,100854.48
2022-12-11T06:13:28.161Z,100854.70
2022-12-11T06:14:29.631Z,100856.52
2022-12-11T06:15:31.771Z,100856.14
2022-12-11T06:16:33.509Z,100855.67
2022-12-11T06:17:35.170Z,100855.66
2022-12-11T06:18:37.734Z,100856.33
2022-12-11T06:19:39.334Z,100853.72
2022-12-11T06:20:40.796Z,100853.71
2022-12-11T06:21:43.328Z,100853.61
2022-12-11T06:22:44.845Z,100854.38
2022-12-11T06:23:47.283Z,100850.52
2022-12-11T06:24:48.726Z,100852.13
2022-12-11T06:25:50.321Z,100851.92
2022-12-11T06:26:51.937Z,100850.80
2022-12-11T06:27:53.494Z,100849.95
2022-12-11T06:28:55.079Z,100851.79
2022-12-11T06:29:56.572Z,100851.14
2022-12-11T06:30:58.754Z,100851.89
2022-12-11T06:32:00.411Z,100855.25
2022-12-11T06:33:01.949Z,100855.16
2022-12-11T06:34:03.390Z,100855.70
2022-12-11T06:35:05.219Z,100856.59
2022-12-11T06:36:08.248Z,100854.51
2022-12-11T06:37:10.092Z,100853.54
2022-12-11T06:38:11.529Z,100855.69
2022-12-11T06:39:13.003Z,100852.28
2022-12-11T06:40:14.514Z,100853.22
2022-12-11T06:41:16.648Z,100851.41
2022-12-11T06:42:18.333Z,100852.77
2022-12-11T06:43:19.903Z,100853.89
2022-12-11T06:44:21.798Z,100853.56
2022-12-11T06:45:23.319Z,100852.52
2022-12-11T06:46:24.801Z,100853.27
2022-12-11T06:47:26.929Z,100854.79
2022-12-11T06:48:28.431Z,100857.70
2022-12-11T06:49:29.952Z,100860.21
2022-12-11T06:50:31.481Z,100863.41
2022-12-11T06:51:33.004Z,100863.96
2022-12-11T06:52:34.670Z,100865.21
2022-12-11T06:53:36.534Z,100863.39
2022-12-11T06:54:38.105Z,100862.79
2022-12-11T06:55:39.681Z,100866.59
2022-12-11T06:56:41.290Z,100864.59
2022-12-11T06:57:42.931Z,100871.26
2022-12-11T06:58:44.460Z,100872.98
2022-12-11T06:59:45.926Z,100874.06
2022-12-11T07:00:47.758Z,100873.90
2022-12-11T07:01:49.405Z,100873.48
2022-12-11T07:02:51.094Z,100876.22
2022-12-11T07:03:53.608Z,100875.59
2022-12-11T07:04:55.483Z,100873.02
2022-12-11T07:06:01.614Z,100869.61
2022-12-11T07:07:03.160Z,100870.02
2022-12-11T07:08:06.943Z,100866.16
2022-12-11T07:09:09.919Z,100868.09
2022-12-11T07:10:11.541Z,100864.77
2022-12-11T07:11:14.317Z,100864.66
2022-12-11T07:12:16.169Z,100870.08
2022-12-11T07:13:17.787Z,100867.69
2022-12-11T07:14:20.452Z,100869.32
2022-12-11T07:15:21.957Z,100863.06
2022-12-11T07:16:23.426Z,100865.77
2022-12-11T07:17:25.282Z,100862.98
2022-12-11T07:18:27.326Z,100864.16
2022-12-11T07:19:28.921Z,100865.73
2022-12-11T07:20:30.378Z,100861.15
2022-12-11T07:21:31.809Z,100858.64
2022-12-11T07:22:33.365Z,100864.38
2022-12-11T07:23:35.622Z,100860.10
2022-12-11T07:24:37.115Z,100861.77
2022-12-11T07:25:38.660Z,100857.63
2022-12-11T07:26:40.231Z,100854.58
2022-12-11T07:27:41.795Z,100855.64
2022-12-11T07:28:43.813Z,100855.52
2022-12-11T07:29:45.474Z,100850.65
2022-12-11T07:30:47.177Z,100854.48
2022-12-11T07:31:48.806Z,100853.64
2022-12-11T07:32:50.444Z,100852.80
2022-12-11T07:33:59.635Z,100852.77
2022-12-11T07:35:01.215Z,100850.27
2022-12-11T07:36:04.243Z,100844.66
2022-12-11T07:37:05.836Z,100848.23
2022-12-11T07:38:07.866Z,100842.02
2022-12-11T07:39:13.084Z,100841.42
2022-12-11T07:40:14.864Z,100839.98
2022-12-11T07:41:17.144Z,100838.23
2022-12-11T07:42:18.976Z,100840.42
2022-12-11T07:43:20.615Z,100840.84
2022-12-11T07:44:22.898Z,100837.31
2022-12-11T07:45:25.804Z,100839.12
2022-12-11T07:46:28.423Z,100836.64
2022-12-11T07:47:30.064Z,100834.80
2022-12-11T07:48:31.723Z,100836.86
2022-12-11T07:49:33.360Z,100838.31
2022-12-11T07:50:39.764Z,100833.19
2022-12-11T07:51:42.030Z,100833.29
2022-12-11T07:52:44.007Z,100833.88
2022-12-11T07:53:47.128Z,100837.06
2022-12-11T07:54:48.823Z,100830.63
2022-12-11T07:55:50.345Z,100837.63
2022-12-11T07:56:54.012Z,100833.94
2022-12-11T07:57:55.641Z,100833.08
2022-12-11T07:59:01.064Z,100831.73
2022-12-11T08:00:04.110Z,100834.09
2022-12-11T08:01:34.882Z,100832.52
2022-12-11T08:02:37.537Z,100826.45
2022-12-11T08:03:39.399Z,100825.66
2022-12-11T08:04:40.985Z,100826.13
2022-12-11T08:05:49.595Z,100824.75
2022-12-11T08:06:51.073Z,100825.17
2022-12-11T08:07:52.602Z,100825.97
2022-12-11T08:08:57.823Z,100827.63
2022-12-11T08:09:59.550Z,100829.69
2022-12-11T08:11:11.687Z,100832.44
2022-12-11T08:12:13.398Z,100838.84
2022-12-11T08:13:14.911Z,100844.84
2022-12-11T08:14:17.306Z,100845.08
2022-12-11T08:15:18.839Z,100846.35
2022-12-11T08:16:20.943Z,100850.06
2022-12-11T08:17:27.417Z,100844.16
2022-12-11T08:18:32.661Z,100847.08
2022-12-11T08:19:34.238Z,100843.08
2022-12-11T08:20:37.239Z,100840.34
2022-12-11T08:21:39.470Z,100843.34
2022-12-11T08:22:41.126Z,100846.52
2022-12-11T08:23:42.831Z,100844.45
2022-12-11T08:24:44.253Z,100835.94
2022-12-11T08:25:45.844Z,100841.62
2022-12-11T08:26:48.676Z,100840.44
2022-12-11T08:27:50.461Z,100848.73
2022-12-11T08:28:52.319Z,100845.45
2022-12-11T08:29:53.777Z,100849.77
2022-12-11T08:30:55.345Z,100852.52
2022-12-11T08:31:57.165Z,100852.14
2022-12-11T08:32:59.224Z,100847.17
2022-12-11T08:34:01.292Z,100846.67
2022-12-11T08:35:02.935Z,100849.85
2022-12-11T08:36:06.502Z,100851.01
2022-12-11T08:37:08.176Z,100854.84
2022-12-11T08:38:09.690Z,100857.59
2022-12-11T08:39:11.235Z,100856.77
2022-12-11T08:40:13.470Z,100854.92
2022-12-11T08:41:16.477Z,100854.96
2022-12-11T08:42:18.261Z,100855.10
2022-12-11T08:43:19.943Z,100854.24
2022-12-11T08:44:24.360Z,100863.96
2022-12-11T08:45:26.429Z,100859.02
2022-12-11T08:46:31.724Z,100865.36
2022-12-11T08:47:33.405Z,100865.45
2022-12-11T08:48:36.089Z,100870.23
2022-12-11T08:49:37.538Z,100871.80
2022-12-11T08:50:39.065Z,100871.58
2022-12-11T08:51:40.535Z,100869.33
2022-12-11T08:52:42.193Z,100869.66
2022-12-11T08:53:44.342Z,100869.33
2022-12-11T08:54:47.732Z,100872.36
2022-12-11T08:55:49.131Z,100874.69
2022-12-11T08:56:54.872Z,100875.64
2022-12-11T08:58:00.347Z,100875.17
2022-12-11T08:59:04.818Z,100872.66
2022-12-11T09:00:20.674Z,100875.54
2022-12-11T09:01:24.028Z,100872.38
2022-12-11T09:02:25.641Z,100869.73
2022-12-11T09:03:27.635Z,100870.09
2022-12-11T09:04:29.424Z,100871.24
2022-12-11T09:05:30.951Z,100874.39
2022-12-11T09:06:32.758Z,100873.14
2022-12-11T09:07:35.157Z,100868.04
2022-12-11T09:08:37.473Z,100870.15
2022-12-11T09:09:39.301Z,100866.82
2022-12-11T09:10:41.007Z,100868.07
2022-12-11T09:11:42.488Z,100866.92
2022-12-11T09:12:44.483Z,100862.55
2022-12-11T09:13:46.211Z,100864.86
2022-12-11T09:14:47.698Z,100866.55
2022-12-11T09:15:49.168Z,100869.23
2022-12-11T09:16:50.612Z,100866.73
2022-12-11T09:17:52.431Z,100866.36
2022-12-11T09:18:55.795Z,100864.96
2022-12-11T09:19:57.621Z,100863.41
2022-12-11T09:21:00.294Z,100864.21
2022-12-11T09:22:01.725Z,100862.98
2022-12-11T09:23:04.081Z,100862.91
2022-12-11T09:24:06.114Z,100865.45
2022-12-11T09:25:09.228Z,100865.81
2022-12-11T09:26:12.711Z,100863.30
2022-12-11T09:27:14.465Z,100863.89
2022-12-11T09:28:16.096Z,100864.92
2022-12-11T09:29:17.866Z,100865.61
2022-12-11T09:30:19.517Z,100865.35
2022-12-11T09:31:23.342Z,100862.67
2022-12-11T09:32:24.996Z,100855.41
2022-12-11T09:33:27.100Z,100853.55
2022-12-11T09:34:29.657Z,100851.91
2022-12-11T09:35:31.556Z,100850.83
2022-12-11T09:36:33.566Z,100853.00
2022-12-11T09:37:35.473Z,100848.75
2022-12-11T09:38:38.195Z,100845.77
2022-12-11T09:39:39.898Z,100845.15
2022-12-11T09:40:42.579Z,100840.70
2022-12-11T09:42:03.024Z,100845.89
2022-12-11T09:43:18.000Z,100846.16
2022-12-11T09:44:31.622Z,100843.12
2022-12-11T09:45:49.676Z,100844.24
2022-12-11T09:46:51.362Z,100843.02
2022-12-11T09:47:54.910Z,100846.90
2022-12-11T09:48:56.836Z,100841.48
2022-12-11T09:50:03.951Z,100841.55
2022-12-11T09:51:14.127Z,100842.55
2022-12-11T09:52:15.641Z,100843.17
2022-12-11T09:53:17.070Z,100843.76
2022-12-11T09:54:18.512Z,100845.44
2022-12-11T09:55:23.602Z,100844.96
2022-12-11T09:56:31.001Z,100844.95
2022-12-11T09:57:42.299Z,100845.52
2022-12-11T09:58:55.780Z,100842.27
2022-12-11T10:00:04.786Z,100841.86
2022-12-11T10:01:07.073Z,100840.05
2022-12-11T10:02:30.877Z,100839.64
2022-12-11T10:04:06.613Z,100836.42
2022-12-11T10:05:21.139Z,100832.77
2022-12-11T10:06:32.616Z,100834.89
2022-12-11T10:07:41.534Z,100832.23
2022-12-11T10:08:57.186Z,100833.35
2022-12-11T10:10:12.436Z,100833.63
2022-12-11T10:11:32.523Z,100829.02
2022-12-11T10:12:40.448Z,100829.48
2022-12-11T10:14:02.453Z,100833.79
2022-12-11T10:15:12.216Z,100833.84
2022-12-11T10:16:14.065Z,100833.50
2022-12-11T10:17:20.169Z,100832.11
2022-12-11T10:18:23.449Z,100827.75
2022-12-11T10:19:30.326Z,100831.43
2022-12-11T10:20:39.156Z,100828.35
2022-12-11T10:21:42.638Z,100830.17
2022-12-11T10:22:44.787Z,100830.55
2022-12-11T10:24:12.450Z,100829.54
2022-12-11T10:25:20.118Z,100832.80
2022-12-11T10:26:22.588Z,100832.18
2022-12-11T10:27:30.508Z,100829.58
2022-12-11T10:28:32.114Z,100827.45
2022-12-11T10:29:33.760Z,100826.29
2022-12-11T10:30:37.328Z,100824.91
2022-12-11T10:31:57.838Z,100819.14
2022-12-11T10:33:05.161Z,100819.48
2022-12-11T10:34:12.845Z,100813.02
2022-12-11T10:35:20.082Z,100811.45
2022-12-11T10:36:44.770Z,100811.34
2022-12-11T10:37:46.359Z,100809.80
2022-12-11T10:38:48.058Z,100809.80
2022-12-11T10:39:49.510Z,100809.09
2022-12-11T10:40:57.539Z,100810.39
2022-12-11T10:42:04.086Z,100801.77
2022-12-11T10:43:05.732Z,100803.04
2022-12-11T10:44:34.170Z,100800.54
2022-12-11T10:45:35.793Z,100800.17
2022-12-11T10:46:38.239Z,100797.34
2022-12-11T10:47:40.569Z,100794.41
2022-12-11T10:48:52.944Z,100787.84
2022-12-11T10:50:01.450Z,100788.49
2022-12-11T10:51:06.525Z,100784.36
2022-12-11T10:52:29.139Z,100787.30
2022-12-11T10:53:31.559Z,100779.84
2022-12-11T10:54:33.131Z,100779.81
2022-12-11T10:55:45.075Z,100775.14
2022-12-11T10:56:47.741Z,100775.33
2022-12-11T10:57:58.068Z,100774.17
2022-12-11T10:59:00.774Z,100773.41
2022-12-11T11:00:05.838Z,100766.27
2022-12-11T11:01:07.391Z,100765.67
2022-12-11T11:02:23.306Z,100763.84
2022-12-11T11:03:27.169Z,100760.67
2022-12-11T11:04:31.609Z,100758.44
2022-12-11T11:05:35.101Z,100753.77
2022-12-11T11:06:37.026Z,100753.46
2022-12-11T11:07:40.156Z,100750.27
2022-12-11T11:08:43.757Z,100747.63
2022-12-11T11:09:46.068Z,100747.98
2022-12-11T11:10:53.357Z,100746.69
2022-12-11T11:11:55.055Z,100744.05
2022-12-11T11:13:00.718Z,100748.19
2022-12-11T11:14:05.296Z,100742.52
2022-12-11T11:15:14.795Z,100742.83
2022-12-11T11:16:18.655Z,100743.27
2022-12-11T11:17:20.278Z,100743.70
2022-12-11T11:18:25.568Z,100740.04
2022-12-11T11:19:30.270Z,100739.40
2022-12-11T11:20:33.644Z,100741.25
2022-12-11T11:21:35.773Z,100736.95
2022-12-11T11:22:44.698Z,100736.94
2022-12-11T11:23:51.875Z,100736.95
2022-12-11T11:24:56.299Z,100739.34
2022-12-11T11:25:59.694Z,100736.64
2022-12-11T11:27:12.751Z,100737.22
2022-12-11T11:28:20.518Z,100731.50
2022-12-11T11:29:32.483Z,100734.13
2022-12-11T11:30:35.873Z,100734.84
2022-12-11T11:31:37.786Z,100728.48
2022-12-11T11:32:40.402Z,100730.38
2022-12-11T11:33:49.002Z,100726.70
2022-12-11T11:34:53.352Z,100727.91
2022-12-11T11:36:03.038Z,100727.76
2022-12-11T11:37:05.497Z,100726.64
2022-12-11T11:38:33.314Z,100724.34
2022-12-11T11:39:44.336Z,100721.35
2022-12-11T11:41:05.594Z,100722.90
2022-12-11T11:42:14.787Z,100720.10
2022-12-11T11:43:35.321Z,100715.84
2022-12-11T11:44:39.874Z,100714.48
2022-12-11T11:45:53.160Z,100711.11
2022-12-11T11:47:01.601Z,100709.72
2022-12-11T11:48:19.172Z,100706.67
2022-12-11T11:49:23.417Z,100703.08
2022-12-11T11:50:29.195Z,100700.73
2022-12-11T11:51:35.533Z,100702.36
2022-12-11T11:52:36.983Z,100699.30
2022-12-11T11:53:40.915Z,100697.90
2022-12-11T11:54:42.397Z,100696.16
2022-12-11T11:56:02.589Z,100698.66
2022-12-11T11:57:24.339Z,100695.55
2022-12-11T11:58:30.542Z,100689.91
2022-12-11T11:59:54.970Z,100688.92
2022-12-11T12:00:57.663Z,100690.58
2022-12-11T12:01:59.169Z,100687.80
2022-12-11T12:03:05.373Z,100689.55
2022-12-11T12:04:07.162Z,100690.08
2022-12-11T12:05:13.439Z,100688.70
2022-12-11T12:06:21.028Z,100693.80
2022-12-11T12:07:37.423Z,100687.80
2022-12-11T12:08:46.292Z,100689.91
2022-12-11T12:10:00.710Z,100692.69
2022-12-11T12:11:09.588Z,100689.02
2022-12-11T12:12:22.808Z,100690.45
2022-12-11T12:13:51.762Z,100692.27
2022-12-11T12:14:53.403Z,100690.45
2022-12-11T12:15:54.989Z,100692.03
2022-12-11T12:17:18.364Z,100690.29